Tracy Creek, New York
Current Conditions -  °F | °C
As of 6:53 PM on Monday 24 Nov 2014 (Local Time) from KBGM Reporting Station
Clear Clear  
Wind Chill: 60°   Ceiling: Unl
Heat Index: 60°   Visibility: 10mi
Dew Point: 48°   Wind: 14mph
Humidity: 64%   Direction: 210°SSW
Pressure: 29.54"   Gusts: 25mph
Location:  42.0463°N, 76.0314°W
Report Text: KBGM 242353Z 21012G22KT 10SM CLR 16/09 A2954 RMK AO2 SLP999 T01560089 10189 20156 51030
Loading
Personal Weather Stations






























Interactive Weather Map New forecast layout! Learn more

10-Day Weather Forecast

Advertisements
Track Severe Weather on mobile